Nearby METAR Reports

 

KKLS - Kelso Longveiw, Washington, USA
Distance from station: ESE 7mi, 11km
Updated: Tue, 16-Oct-2018 1:56am PDT
Clear
Clear
 Wind from calm
Wind: Calm
Temperature: 43°F , 6°C
Dew Point: 41°F , 5°C
Humidity: 93%
Barometer: 1025.4 hPa
Clouds: Clear
Visibility: 8 miles , 13 km
2018/10/16 08:56 KKLS 160856Z AUTO 00000KT 8SM CLR 06/05 A3028 RMK AO2 SLP260 T00610050 51004
KSPB - Scappoose, Oregon, USA
Distance from station: SSE 29mi, 46km
Updated: Tue, 16-Oct-2018 2:53am PDT
Clear
Clear
 Wind from calm
Wind: Calm
Temperature: 43°F , 6°C
Dew Point: 39°F , 4°C
Humidity: 87%
Barometer: 1024.7 hPa
Clouds: Clear
Visibility: 10 miles , 16 km
2018/10/16 09:53 KSPB 160953Z AUTO 00000KT 10SM CLR 06/04 A3026 RMK AO2 SLP245 T00560039
 
KCLS - Chehalis Central, Washington, USA
Distance from station: N 36mi, 58km
Updated: Tue, 16-Oct-2018 2:55am PDT
Clear
Clear
 Wind from calm
Wind: Calm
Temperature: 39°F , 4°C
Dew Point: 39°F , 4°C
Humidity: 100%
Barometer: 1026.1 hPa
Clouds: Clear
Visibility: 9 miles , 14 km
2018/10/16 09:55 KCLS 160955Z AUTO 00000KT 9SM CLR 04/04 A3030 RMK AO2
KAST - Astoria, Oregon, USA
Distance from station: W 41mi, 66km
Updated: Tue, 16-Oct-2018 1:55am PDT
Clear
Clear
 Wind from E
Wind: E 6 mph , 9 km/h
Temperature: 52°F , 11°C
Dew Point: 45°F , 7°C
Humidity: 77%
Barometer: 1023 hPa
Clouds: Clear
Visibility: 10 miles , 16 km
2018/10/16 08:55 KAST 160855Z AUTO 09005KT 10SM CLR 11/07 A3021 RMK AO2 SLP230 T01060072 53001
 
KVUO - Vancouver, Washington, USA
Distance from station: SSE 42mi, 68km
Updated: Tue, 16-Oct-2018 2:53am PDT
Clear
Clear
 Wind from calm
Wind: Calm
Temperature: 45°F , 7°C
Dew Point: 41°F , 5°C
Humidity: 87%
Barometer: 1024.7 hPa
Clouds: Clear
Visibility: 10 miles , 16 km
2018/10/16 09:53 KVUO 160953Z AUTO 00000KT 10SM CLR 07/05 A3026 RMK AO2 SLP246 T00720050
KHIO - Hillsboro/Portld, Oregon, USA
Distance from station: S 43mi, 69km
Updated: Tue, 16-Oct-2018 2:53am PDT
Clear
Clear
 Wind from NW
Wind: NW 5 mph , 7 km/h
Temperature: 39°F , 4°C
Wind Chill: 35°F , 2°C
Dew Point: 37°F , 3°C
Humidity: 93%
Barometer: 1024.4 hPa
Clouds: Clear
Visibility: 10 miles , 16 km
2018/10/16 09:53 KHIO 160953Z AUTO 32004KT 10SM CLR 04/03 A3025 RMK AO2 SLP241 T00440028
 
KPDX - Portland, Oregon, USA
Distance from station: SSE 44mi, 70km
Updated: Tue, 16-Oct-2018 2:53am PDT
Clear
Clear
 Wind from WSW
Wind: WSW 3 mph , 6 km/h
Temperature: 46°F , 8°C
Dew Point: 41°F , 5°C
Humidity: 82%
Barometer: 1025.1 hPa
Clouds: Clear
Visibility: 10 miles , 16 km
2018/10/16 09:53 KPDX 160953Z 24003KT 10SM CLR 08/05 A3027 RMK AO2 SLP247 T00830050